Página principal
METAR-TAF:

METAR-TAF

Aeroportos :

Aeroporto Internacional de Honiara

Honiara, Guadalcanal, Ilhas Salomão

latitude: 09-25S, longitude: 160-03E, altura: 8 m

Observação actual do tempo

O boletim foi feito há 22 minutos, às 03:00 UTC
Vento 5 kt de nor-nordeste
Temperatura 31°C
Humidade 71%
Pressão 1009 hPa
Visibilidade 10 km ou mais
Poucas nuvensa uma altura de 2100 ft
Poucas nuvensa uma altura de 2200 ft, Cumulonimbus.

METAR: AGGH 140300Z 02005KT 9999 FEW021 FEW022CB 31/25 Q1009

Hora: 14:22 (03:22 UTC)

Previsão

O boletim foi feito há 4 horas e 12 minutos, às 23:10 UTC
Previsão válida de 14 às 00 UTC a 14 às 24 UTC
Vento 10 kt de es-nordeste
Visibilidade: 1011 m
Nuvens dispersasa uma altura de 1800 ft

TAF: AGGH 132310Z 1400/1424 07010KT 9999 SCT018 T 31 31 28 27 Q 1012 1010 1009 1011

Observações e previsões do tempo de mais de 4000 aeroportos (mensagens METAR e TAF).

As estações disponíveis são os pontos amarelos e vermelhos sobre o mapa.

Mova o rato sobre o mapa para ver o nome da estação.

Depois clique no ponto para visualizar as observações e previsões meteorológicas.

Para alterar o mapa : clique nos botões verdes com uma cruz preta para aumentar o zoom; no botão verde com uma pitada de zoom; ou nas setas verdes para mapas adjacentes.


METAR-TAF: